KCHA/CHA METAR and TAF weather

Enter ICAO airport designator
Station Type Date Time Source
KCHA METAR 2018/04/21 10:53 UTC NOAA

KCHA 211053Z 00000KT 10SM SCT150 04/03 A3034 RMK AO2 SLP271 T00440028


Station Type Date Time Source
KCHA Decoded METAR 2018/04/21 10:53 UTC NOAA

LOVELL FIELD, TN, United States (KCHA) 35-02N 085-12W 210M
Apr 21, 2018 - 06:53 AM EDT / 2018.04.21 1053 UTC
Wind: Calm:0
Visibility: 10 mile(s):0
Sky conditions: partly cloudy
Temperature: 39.9 F (4.4 C)
Dew Point: 37.0 F (2.8 C)
Relative Humidity: 89%
Pressure (altimeter): 30.34 in. Hg (1027 hPa)
ob: KCHA 211053Z 00000KT 10SM SCT150 04/03 A3034 RMK AO2 SLP271 T00440028
cycle: 11

Station Type Date Time Source
KCHA TAF 2018/04/21 12:24 UTC NOAA

TAF KCHA 211123Z 2112/2212 00000KT P6SM SCT150
FM211500 12010KT P6SM SCT150
FM220000 15004KT P6SM SCT100 OVC150
FM220600 15004KT P6SM BKN060 OVC100


Example: see airport list